sensor_id;sensor_type;location;lat;lon;timestamp;temperature;humidity
18930;DHT22;43305;52.186;5.598;2022-10-31T00:00:15;12.00;99.90
18930;DHT22;43305;52.186;5.598;2022-10-31T00:02:42;12.00;99.90
18930;DHT22;43305;52.186;5.598;2022-10-31T00:05:12;12.00;99.90
18930;DHT22;43305;52.186;5.598;2022-10-31T00:07:39;12.00;99.90
18930;DHT22;43305;52.186;5.598;2022-10-31T00:10:07;12.00;99.90
18930;DHT22;43305;52.186;5.598;2022-10-31T00:12:37;12.00;99.90
18930;DHT22;43305;52.186;5.598;2022-10-31T00:15:08;12.00;99.90
18930;DHT22;43305;52.186;5.598;2022-10-31T00:17:35;11.90;99.90
18930;DHT22;43305;52.186;5.598;2022-10-31T00:20:02;11.90;99.90
18930;DHT22;43305;52.186;5.598;2022-10-31T00:22:32;11.90;99.90
18930;DHT22;43305;52.186;5.598;2022-10-31T00:24:59;11.90;99.90
18930;DHT22;43305;52.186;5.598;2022-10-31T00:27:28;11.90;99.90
18930;DHT22;43305;52.186;5.598;2022-10-31T00:29:55;12.00;99.90
18930;DHT22;43305;52.186;5.598;2022-10-31T00:32:30;12.00;99.90
18930;DHT22;43305;52.186;5.598;2022-10-31T00:34:56;12.00;99.90
18930;DHT22;43305;52.186;5.598;2022-10-31T00:37:26;12.00;99.90
18930;DHT22;43305;52.186;5.598;2022-10-31T00:39:53;12.00;99.90
18930;DHT22;43305;52.186;5.598;2022-10-31T00:42:20;12.00;99.90
18930;DHT22;43305;52.186;5.598;2022-10-31T00:44:47;12.00;99.90
18930;DHT22;43305;52.186;5.598;2022-10-31T00:47:16;12.00;99.90
18930;DHT22;43305;52.186;5.598;2022-10-31T00:49:45;12.00;99.90
18930;DHT22;43305;52.186;5.598;2022-10-31T00:52:12;12.00;99.90
18930;DHT22;43305;52.186;5.598;2022-10-31T00:54:41;12.00;99.90
18930;DHT22;43305;52.186;5.598;2022-10-31T00:57:08;12.00;99.90
18930;DHT22;43305;52.186;5.598;2022-10-31T00:59:35;12.00;99.90
18930;DHT22;43305;52.186;5.598;2022-10-31T01:02:03;12.00;99.90
18930;DHT22;43305;52.186;5.598;2022-10-31T01:04:30;12.00;99.90
18930;DHT22;43305;52.186;5.598;2022-10-31T01:07:00;12.00;99.90
18930;DHT22;43305;52.186;5.598;2022-10-31T01:09:27;11.90;99.90
18930;DHT22;43305;52.186;5.598;2022-10-31T01:11:56;11.90;99.90
18930;DHT22;43305;52.186;5.598;2022-10-31T01:14:22;11.90;99.90
18930;DHT22;43305;52.186;5.598;2022-10-31T01:16:49;11.90;99.90
18930;DHT22;43305;52.186;5.598;2022-10-31T01:19:16;11.90;99.90
18930;DHT22;43305;52.186;5.598;2022-10-31T01:21:44;11.90;99.90
18930;DHT22;43305;52.186;5.598;2022-10-31T01:24:12;11.80;99.90
18930;DHT22;43305;52.186;5.598;2022-10-31T01:26:39;11.80;99.90
18930;DHT22;43305;52.186;5.598;2022-10-31T01:29:08;11.80;99.90
18930;DHT22;43305;52.186;5.598;2022-10-31T01:31:37;11.80;99.90
18930;DHT22;43305;52.186;5.598;2022-10-31T01:34:05;11.70;99.90
18930;DHT22;43305;52.186;5.598;2022-10-31T01:36:37;11.70;99.90
18930;DHT22;43305;52.186;5.598;2022-10-31T01:39:06;11.70;99.90
18930;DHT22;43305;52.186;5.598;2022-10-31T01:41:39;11.70;99.90
18930;DHT22;43305;52.186;5.598;2022-10-31T01:47:07;11.60;99.90
18930;DHT22;43305;52.186;5.598;2022-10-31T01:49:36;11.60;99.90
18930;DHT22;43305;52.186;5.598;2022-10-31T01:52:10;11.60;99.90
18930;DHT22;43305;52.186;5.598;2022-10-31T01:54:42;11.50;99.90
18930;DHT22;43305;52.186;5.598;2022-10-31T01:57:13;11.40;99.90
18930;DHT22;43305;52.186;5.598;2022-10-31T01:59:45;11.40;99.90
18930;DHT22;43305;52.186;5.598;2022-10-31T02:02:13;11.30;99.90
18930;DHT22;43305;52.186;5.598;2022-10-31T02:04:43;11.30;99.90
18930;DHT22;43305;52.186;5.598;2022-10-31T02:07:14;11.30;99.90
18930;DHT22;43305;52.186;5.598;2022-10-31T02:09:43;11.20;99.90
18930;DHT22;43305;52.186;5.598;2022-10-31T02:12:13;11.20;99.90
18930;DHT22;43305;52.186;5.598;2022-10-31T02:14:40;11.20;99.90
18930;DHT22;43305;52.186;5.598;2022-10-31T02:17:08;11.20;99.90
18930;DHT22;43305;52.186;5.598;2022-10-31T02:19:40;11.10;99.90
18930;DHT22;43305;52.186;5.598;2022-10-31T02:22:16;11.10;99.90
18930;DHT22;43305;52.186;5.598;2022-10-31T02:24:58;11.00;99.90
18930;DHT22;43305;52.186;5.598;2022-10-31T02:27:59;11.00;99.90
18930;DHT22;43305;52.186;5.598;2022-10-31T02:30:36;10.90;99.90
18930;DHT22;43305;52.186;5.598;2022-10-31T02:33:15;10.90;99.90
18930;DHT22;43305;52.186;5.598;2022-10-31T02:35:55;10.80;99.90
18930;DHT22;43305;52.186;5.598;2022-10-31T02:38:31;10.80;99.90
18930;DHT22;43305;52.186;5.598;2022-10-31T02:41:09;10.80;99.90
18930;DHT22;43305;52.186;5.598;2022-10-31T02:43:46;10.80;99.90
18930;DHT22;43305;52.186;5.598;2022-10-31T02:46:24;10.80;99.90
18930;DHT22;43305;52.186;5.598;2022-10-31T02:48:57;10.80;99.90
18930;DHT22;43305;52.186;5.598;2022-10-31T02:51:27;10.70;99.90
18930;DHT22;43305;52.186;5.598;2022-10-31T02:53:54;10.70;99.90
18930;DHT22;43305;52.186;5.598;2022-10-31T02:56:22;10.60;99.90
18930;DHT22;43305;52.186;5.598;2022-10-31T02:58:51;10.60;99.90
18930;DHT22;43305;52.186;5.598;2022-10-31T03:01:31;10.50;99.90
18930;DHT22;43305;52.186;5.598;2022-10-31T03:04:15;10.50;99.90
18930;DHT22;43305;52.186;5.598;2022-10-31T03:06:47;10.50;99.90
18930;DHT22;43305;52.186;5.598;2022-10-31T03:09:21;10.40;99.90
18930;DHT22;43305;52.186;5.598;2022-10-31T03:11:58;10.40;99.90
18930;DHT22;43305;52.186;5.598;2022-10-31T03:14:33;10.30;99.90
18930;DHT22;43305;52.186;5.598;2022-10-31T03:17:05;10.30;99.90
18930;DHT22;43305;52.186;5.598;2022-10-31T03:19:39;10.30;99.90
18930;DHT22;43305;52.186;5.598;2022-10-31T03:22:12;10.20;99.90
18930;DHT22;43305;52.186;5.598;2022-10-31T03:24:46;10.20;99.90
18930;DHT22;43305;52.186;5.598;2022-10-31T03:27:17;10.20;99.90
18930;DHT22;43305;52.186;5.598;2022-10-31T03:29:49;10.10;99.90
18930;DHT22;43305;52.186;5.598;2022-10-31T03:32:19;10.10;99.90
18930;DHT22;43305;52.186;5.598;2022-10-31T03:34:49;10.10;99.90
18930;DHT22;43305;52.186;5.598;2022-10-31T03:37:19;10.00;99.90
18930;DHT22;43305;52.186;5.598;2022-10-31T03:39:48;10.00;99.90
18930;DHT22;43305;52.186;5.598;2022-10-31T03:42:20;9.90;99.90
18930;DHT22;43305;52.186;5.598;2022-10-31T03:44:52;9.90;99.90
18930;DHT22;43305;52.186;5.598;2022-10-31T03:47:19;9.90;99.90
18930;DHT22;43305;52.186;5.598;2022-10-31T03:49:46;9.90;99.90
18930;DHT22;43305;52.186;5.598;2022-10-31T03:52:24;9.80;99.90
18930;DHT22;43305;52.186;5.598;2022-10-31T03:54:58;9.80;99.90
18930;DHT22;43305;52.186;5.598;2022-10-31T03:57:32;9.70;99.90
18930;DHT22;43305;52.186;5.598;2022-10-31T04:00:05;9.70;99.90
18930;DHT22;43305;52.186;5.598;2022-10-31T04:02:34;9.70;99.90
18930;DHT22;43305;52.186;5.598;2022-10-31T04:05:03;9.70;99.90
18930;DHT22;43305;52.186;5.598;2022-10-31T04:07:36;9.60;99.90
18930;DHT22;43305;52.186;5.598;2022-10-31T04:10:07;9.60;99.90
18930;DHT22;43305;52.186;5.598;2022-10-31T04:12:37;9.60;99.90
18930;DHT22;43305;52.186;5.598;2022-10-31T04:15:06;9.60;99.90
18930;DHT22;43305;52.186;5.598;2022-10-31T04:17:37;9.50;99.90
18930;DHT22;43305;52.186;5.598;2022-10-31T04:20:06;9.50;99.90
18930;DHT22;43305;52.186;5.598;2022-10-31T04:22:35;9.50;99.90
18930;DHT22;43305;52.186;5.598;2022-10-31T04:25:01;9.40;99.90
18930;DHT22;43305;52.186;5.598;2022-10-31T04:27:28;9.40;99.90
18930;DHT22;43305;52.186;5.598;2022-10-31T04:29:55;9.50;99.90
18930;DHT22;43305;52.186;5.598;2022-10-31T04:32:22;9.40;99.90
18930;DHT22;43305;52.186;5.598;2022-10-31T04:34:49;9.40;99.90
18930;DHT22;43305;52.186;5.598;2022-10-31T04:37:15;9.40;99.90
18930;DHT22;43305;52.186;5.598;2022-10-31T04:39:43;9.40;99.90
18930;DHT22;43305;52.186;5.598;2022-10-31T04:42:10;9.30;99.90
18930;DHT22;43305;52.186;5.598;2022-10-31T04:44:37;9.30;99.90
18930;DHT22;43305;52.186;5.598;2022-10-31T04:47:05;9.30;99.90
18930;DHT22;43305;52.186;5.598;2022-10-31T04:49:32;9.20;99.90
18930;DHT22;43305;52.186;5.598;2022-10-31T04:52:01;9.20;99.90
18930;DHT22;43305;52.186;5.598;2022-10-31T04:54:28;9.30;99.90
18930;DHT22;43305;52.186;5.598;2022-10-31T04:56:56;9.30;99.90
18930;DHT22;43305;52.186;5.598;2022-10-31T04:59:22;9.20;99.90
18930;DHT22;43305;52.186;5.598;2022-10-31T05:01:49;9.30;99.90
18930;DHT22;43305;52.186;5.598;2022-10-31T05:04:16;9.20;99.90
18930;DHT22;43305;52.186;5.598;2022-10-31T05:06:42;9.20;99.90
18930;DHT22;43305;52.186;5.598;2022-10-31T05:09:09;9.10;99.90
18930;DHT22;43305;52.186;5.598;2022-10-31T05:11:40;9.10;99.90
18930;DHT22;43305;52.186;5.598;2022-10-31T05:14:08;9.10;99.90
18930;DHT22;43305;52.186;5.598;2022-10-31T05:16:38;9.10;99.90
18930;DHT22;43305;52.186;5.598;2022-10-31T05:19:06;9.10;99.90
18930;DHT22;43305;52.186;5.598;2022-10-31T05:21:32;9.10;99.90
18930;DHT22;43305;52.186;5.598;2022-10-31T05:24:00;9.10;99.90
18930;DHT22;43305;52.186;5.598;2022-10-31T05:26:35;9.10;99.90
18930;DHT22;43305;52.186;5.598;2022-10-31T05:29:02;9.10;99.90
18930;DHT22;43305;52.186;5.598;2022-10-31T05:31:30;9.00;99.90
18930;DHT22;43305;52.186;5.598;2022-10-31T05:34:10;9.00;99.90
18930;DHT22;43305;52.186;5.598;2022-10-31T05:36:37;9.00;99.90
18930;DHT22;43305;52.186;5.598;2022-10-31T05:39:06;9.00;99.90
18930;DHT22;43305;52.186;5.598;2022-10-31T05:41:43;9.00;99.90
18930;DHT22;43305;52.186;5.598;2022-10-31T05:44:14;8.90;99.90
18930;DHT22;43305;52.186;5.598;2022-10-31T05:46:42;8.90;99.90
18930;DHT22;43305;52.186;5.598;2022-10-31T05:49:09;8.90;99.90
18930;DHT22;43305;52.186;5.598;2022-10-31T05:51:38;8.80;99.90
18930;DHT22;43305;52.186;5.598;2022-10-31T05:54:14;8.80;99.90
18930;DHT22;43305;52.186;5.598;2022-10-31T05:56:43;8.80;99.90
18930;DHT22;43305;52.186;5.598;2022-10-31T05:59:13;8.70;99.90
18930;DHT22;43305;52.186;5.598;2022-10-31T06:01:49;8.70;99.90
18930;DHT22;43305;52.186;5.598;2022-10-31T06:04:20;8.70;99.90
18930;DHT22;43305;52.186;5.598;2022-10-31T06:06:50;8.70;99.90
18930;DHT22;43305;52.186;5.598;2022-10-31T06:09:17;8.60;99.90
18930;DHT22;43305;52.186;5.598;2022-10-31T06:11:48;8.70;99.90
18930;DHT22;43305;52.186;5.598;2022-10-31T06:14:17;8.70;99.90
18930;DHT22;43305;52.186;5.598;2022-10-31T06:16:47;8.60;99.90
18930;DHT22;43305;52.186;5.598;2022-10-31T06:19:13;8.70;99.90
18930;DHT22;43305;52.186;5.598;2022-10-31T06:21:40;8.70;99.90
18930;DHT22;43305;52.186;5.598;2022-10-31T06:24:11;8.70;99.90
18930;DHT22;43305;52.186;5.598;2022-10-31T06:26:43;8.80;99.90
18930;DHT22;43305;52.186;5.598;2022-10-31T06:29:10;8.80;99.90
18930;DHT22;43305;52.186;5.598;2022-10-31T06:31:37;8.90;99.90
18930;DHT22;43305;52.186;5.598;2022-10-31T06:34:05;9.00;99.90
18930;DHT22;43305;52.186;5.598;2022-10-31T06:36:32;9.10;99.90
18930;DHT22;43305;52.186;5.598;2022-10-31T06:39:02;9.20;99.90
18930;DHT22;43305;52.186;5.598;2022-10-31T06:41:44;9.40;99.90
18930;DHT22;43305;52.186;5.598;2022-10-31T06:44:17;9.50;99.90
18930;DHT22;43305;52.186;5.598;2022-10-31T06:46:50;9.50;99.90
18930;DHT22;43305;52.186;5.598;2022-10-31T06:49:19;9.50;99.90
18930;DHT22;43305;52.186;5.598;2022-10-31T06:51:47;9.60;99.90
18930;DHT22;43305;52.186;5.598;2022-10-31T06:54:14;9.60;99.90
18930;DHT22;43305;52.186;5.598;2022-10-31T06:56:46;9.60;99.90
18930;DHT22;43305;52.186;5.598;2022-10-31T06:59:13;9.60;99.90
18930;DHT22;43305;52.186;5.598;2022-10-31T07:01:43;9.60;99.90
18930;DHT22;43305;52.186;5.598;2022-10-31T07:04:11;9.60;99.90
18930;DHT22;43305;52.186;5.598;2022-10-31T07:06:39;9.60;99.90
18930;DHT22;43305;52.186;5.598;2022-10-31T07:09:06;9.60;99.90
18930;DHT22;43305;52.186;5.598;2022-10-31T07:11:33;9.60;99.90
18930;DHT22;43305;52.186;5.598;2022-10-31T07:13:59;9.60;99.90
18930;DHT22;43305;52.186;5.598;2022-10-31T07:16:26;9.60;99.90
18930;DHT22;43305;52.186;5.598;2022-10-31T07:18:53;9.60;99.90
18930;DHT22;43305;52.186;5.598;2022-10-31T07:21:20;9.60;99.90
18930;DHT22;43305;52.186;5.598;2022-10-31T07:23:49;9.60;99.90
18930;DHT22;43305;52.186;5.598;2022-10-31T07:26:19;9.70;99.90
18930;DHT22;43305;52.186;5.598;2022-10-31T07:28:52;9.70;99.90
18930;DHT22;43305;52.186;5.598;2022-10-31T07:31:21;9.70;99.90
18930;DHT22;43305;52.186;5.598;2022-10-31T07:33:48;9.70;99.90
18930;DHT22;43305;52.186;5.598;2022-10-31T07:36:15;9.70;99.90
18930;DHT22;43305;52.186;5.598;2022-10-31T07:38:42;9.70;99.90
18930;DHT22;43305;52.186;5.598;2022-10-31T07:41:12;9.80;99.90
18930;DHT22;43305;52.186;5.598;2022-10-31T07:43:42;9.80;99.90
18930;DHT22;43305;52.186;5.598;2022-10-31T07:46:08;9.90;99.90
18930;DHT22;43305;52.186;5.598;2022-10-31T07:48:36;10.00;99.90
18930;DHT22;43305;52.186;5.598;2022-10-31T07:51:11;10.10;99.90
18930;DHT22;43305;52.186;5.598;2022-10-31T07:53:37;10.10;99.90
18930;DHT22;43305;52.186;5.598;2022-10-31T07:56:04;10.20;99.90
18930;DHT22;43305;52.186;5.598;2022-10-31T07:58:32;10.30;99.90
18930;DHT22;43305;52.186;5.598;2022-10-31T08:00:59;10.30;99.90
18930;DHT22;43305;52.186;5.598;2022-10-31T08:03:26;10.40;99.90
18930;DHT22;43305;52.186;5.598;2022-10-31T08:05:56;10.50;99.90
18930;DHT22;43305;52.186;5.598;2022-10-31T08:08:31;10.60;99.90
18930;DHT22;43305;52.186;5.598;2022-10-31T08:11:01;10.70;99.90
18930;DHT22;43305;52.186;5.598;2022-10-31T08:13:32;10.80;99.90
18930;DHT22;43305;52.186;5.598;2022-10-31T08:16:02;10.80;99.90
18930;DHT22;43305;52.186;5.598;2022-10-31T08:18:30;10.90;99.90
18930;DHT22;43305;52.186;5.598;2022-10-31T08:20:57;10.90;99.90
18930;DHT22;43305;52.186;5.598;2022-10-31T08:23:23;11.10;99.90
18930;DHT22;43305;52.186;5.598;2022-10-31T08:26:04;11.20;99.90
18930;DHT22;43305;52.186;5.598;2022-10-31T08:28:35;11.40;99.90
18930;DHT22;43305;52.186;5.598;2022-10-31T08:31:08;11.60;99.90
18930;DHT22;43305;52.186;5.598;2022-10-31T08:33:38;11.70;99.90
18930;DHT22;43305;52.186;5.598;2022-10-31T08:36:05;11.80;99.90
18930;DHT22;43305;52.186;5.598;2022-10-31T08:38:35;12.00;99.90
18930;DHT22;43305;52.186;5.598;2022-10-31T08:41:05;12.20;99.90
18930;DHT22;43305;52.186;5.598;2022-10-31T08:43:38;12.30;99.90
18930;DHT22;43305;52.186;5.598;2022-10-31T08:46:05;12.50;99.90
18930;DHT22;43305;52.186;5.598;2022-10-31T08:48:37;12.70;99.90
18930;DHT22;43305;52.186;5.598;2022-10-31T08:51:10;12.70;99.90
18930;DHT22;43305;52.186;5.598;2022-10-31T08:53:41;12.80;99.90
18930;DHT22;43305;52.186;5.598;2022-10-31T08:56:08;12.90;99.90
18930;DHT22;43305;52.186;5.598;2022-10-31T08:58:37;12.90;99.90
18930;DHT22;43305;52.186;5.598;2022-10-31T09:01:08;12.90;99.90
18930;DHT22;43305;52.186;5.598;2022-10-31T09:03:47;13.00;99.90
18930;DHT22;43305;52.186;5.598;2022-10-31T09:06:14;13.10;99.90
18930;DHT22;43305;52.186;5.598;2022-10-31T09:08:41;13.30;99.90
18930;DHT22;43305;52.186;5.598;2022-10-31T09:11:08;13.40;99.90
18930;DHT22;43305;52.186;5.598;2022-10-31T09:13:35;13.60;99.90
18930;DHT22;43305;52.186;5.598;2022-10-31T09:16:06;13.60;99.90
18930;DHT22;43305;52.186;5.598;2022-10-31T09:18:35;13.60;99.90
18930;DHT22;43305;52.186;5.598;2022-10-31T09:21:12;13.70;99.90
18930;DHT22;43305;52.186;5.598;2022-10-31T09:23:44;13.80;99.90
18930;DHT22;43305;52.186;5.598;2022-10-31T09:26:12;13.90;99.90
18930;DHT22;43305;52.186;5.598;2022-10-31T09:28:41;14.10;99.90
18930;DHT22;43305;52.186;5.598;2022-10-31T09:31:13;14.20;99.90
18930;DHT22;43305;52.186;5.598;2022-10-31T09:33:44;14.40;99.90
18930;DHT22;43305;52.186;5.598;2022-10-31T09:36:11;14.50;99.90
18930;DHT22;43305;52.186;5.598;2022-10-31T09:38:40;14.60;99.90
18930;DHT22;43305;52.186;5.598;2022-10-31T09:41:19;14.50;99.90
18930;DHT22;43305;52.186;5.598;2022-10-31T09:44:00;14.60;99.90
18930;DHT22;43305;52.186;5.598;2022-10-31T09:46:48;14.50;99.90
18930;DHT22;43305;52.186;5.598;2022-10-31T09:49:33;14.50;99.90
18930;DHT22;43305;52.186;5.598;2022-10-31T09:52:10;14.50;99.90
18930;DHT22;43305;52.186;5.598;2022-10-31T09:54:44;14.60;99.90
18930;DHT22;43305;52.186;5.598;2022-10-31T09:57:19;14.60;99.90
18930;DHT22;43305;52.186;5.598;2022-10-31T09:59:49;14.70;99.90
18930;DHT22;43305;52.186;5.598;2022-10-31T10:02:25;14.90;99.90
18930;DHT22;43305;52.186;5.598;2022-10-31T10:04:59;14.90;99.90
18930;DHT22;43305;52.186;5.598;2022-10-31T10:07:38;15.00;99.90
18930;DHT22;43305;52.186;5.598;2022-10-31T10:10:17;15.10;99.90
18930;DHT22;43305;52.186;5.598;2022-10-31T10:13:00;15.20;99.90
18930;DHT22;43305;52.186;5.598;2022-10-31T10:15:45;15.10;99.90
18930;DHT22;43305;52.186;5.598;2022-10-31T10:18:26;15.20;99.90
18930;DHT22;43305;52.186;5.598;2022-10-31T10:21:02;15.30;99.90
18930;DHT22;43305;52.186;5.598;2022-10-31T10:23:41;15.30;99.90
18930;DHT22;43305;52.186;5.598;2022-10-31T10:26:17;15.30;99.90
18930;DHT22;43305;52.186;5.598;2022-10-31T10:28:47;15.40;99.90
18930;DHT22;43305;52.186;5.598;2022-10-31T10:31:16;15.30;99.90
18930;DHT22;43305;52.186;5.598;2022-10-31T10:33:56;15.40;99.90
18930;DHT22;43305;52.186;5.598;2022-10-31T10:36:32;15.50;99.90
18930;DHT22;43305;52.186;5.598;2022-10-31T10:39:08;15.50;99.90
18930;DHT22;43305;52.186;5.598;2022-10-31T10:41:41;15.50;99.90
18930;DHT22;43305;52.186;5.598;2022-10-31T10:44:09;15.50;99.90
18930;DHT22;43305;52.186;5.598;2022-10-31T10:46:40;15.70;99.90
18930;DHT22;43305;52.186;5.598;2022-10-31T10:49:30;15.60;99.90
18930;DHT22;43305;52.186;5.598;2022-10-31T10:52:08;15.60;99.90
18930;DHT22;43305;52.186;5.598;2022-10-31T10:54:46;15.60;99.90
18930;DHT22;43305;52.186;5.598;2022-10-31T10:57:27;15.60;99.90
18930;DHT22;43305;52.186;5.598;2022-10-31T10:59:58;15.70;99.90
18930;DHT22;43305;52.186;5.598;2022-10-31T11:02:31;15.80;99.90
18930;DHT22;43305;52.186;5.598;2022-10-31T11:05:03;15.80;99.90
18930;DHT22;43305;52.186;5.598;2022-10-31T11:07:38;15.80;99.90
18930;DHT22;43305;52.186;5.598;2022-10-31T11:10:06;15.80;99.90
18930;DHT22;43305;52.186;5.598;2022-10-31T11:12:39;15.90;99.90
18930;DHT22;43305;52.186;5.598;2022-10-31T11:15:19;15.90;99.90
18930;DHT22;43305;52.186;5.598;2022-10-31T11:17:49;15.90;99.90
18930;DHT22;43305;52.186;5.598;2022-10-31T11:20:30;15.80;99.90
18930;DHT22;43305;52.186;5.598;2022-10-31T11:25:28;15.90;99.90
18930;DHT22;43305;52.186;5.598;2022-10-31T11:27:59;15.90;99.90
18930;DHT22;43305;52.186;5.598;2022-10-31T11:30:26;15.80;99.90
18930;DHT22;43305;52.186;5.598;2022-10-31T11:32:53;15.80;99.90
18930;DHT22;43305;52.186;5.598;2022-10-31T11:35:22;15.90;99.90
18930;DHT22;43305;52.186;5.598;2022-10-31T11:37:53;15.90;99.90
18930;DHT22;43305;52.186;5.598;2022-10-31T11:40:23;15.90;99.90
18930;DHT22;43305;52.186;5.598;2022-10-31T11:42:57;15.90;99.90
18930;DHT22;43305;52.186;5.598;2022-10-31T11:45:35;16.00;99.90
18930;DHT22;43305;52.186;5.598;2022-10-31T11:48:20;16.00;99.90
18930;DHT22;43305;52.186;5.598;2022-10-31T11:50:58;16.10;99.90
18930;DHT22;43305;52.186;5.598;2022-10-31T11:53:29;16.10;99.90
18930;DHT22;43305;52.186;5.598;2022-10-31T11:56:03;16.10;99.90
18930;DHT22;43305;52.186;5.598;2022-10-31T11:58:33;16.20;99.90
18930;DHT22;43305;52.186;5.598;2022-10-31T12:01:02;16.20;99.90
18930;DHT22;43305;52.186;5.598;2022-10-31T12:03:38;16.20;99.90
18930;DHT22;43305;52.186;5.598;2022-10-31T12:06:11;16.20;99.90
18930;DHT22;43305;52.186;5.598;2022-10-31T12:08:47;16.20;99.90
18930;DHT22;43305;52.186;5.598;2022-10-31T12:11:34;16.10;99.90
18930;DHT22;43305;52.186;5.598;2022-10-31T12:14:11;16.20;99.90
18930;DHT22;43305;52.186;5.598;2022-10-31T12:16:50;16.20;99.90
18930;DHT22;43305;52.186;5.598;2022-10-31T12:19:31;16.30;99.90
18930;DHT22;43305;52.186;5.598;2022-10-31T12:22:05;16.20;99.90
18930;DHT22;43305;52.186;5.598;2022-10-31T12:24:53;16.10;99.90
18930;DHT22;43305;52.186;5.598;2022-10-31T12:27:33;16.20;99.90
18930;DHT22;43305;52.186;5.598;2022-10-31T12:30:14;16.10;99.90
18930;DHT22;43305;52.186;5.598;2022-10-31T12:33:00;16.20;99.90
18930;DHT22;43305;52.186;5.598;2022-10-31T12:35:39;16.20;99.90
18930;DHT22;43305;52.186;5.598;2022-10-31T12:38:28;16.20;99.90
18930;DHT22;43305;52.186;5.598;2022-10-31T12:41:10;16.30;99.90
18930;DHT22;43305;52.186;5.598;2022-10-31T12:43:46;16.40;99.90
18930;DHT22;43305;52.186;5.598;2022-10-31T12:46:23;16.50;99.90
18930;DHT22;43305;52.186;5.598;2022-10-31T12:49:07;16.60;99.90
18930;DHT22;43305;52.186;5.598;2022-10-31T12:51:49;16.70;99.90
18930;DHT22;43305;52.186;5.598;2022-10-31T12:54:37;16.80;99.90
18930;DHT22;43305;52.186;5.598;2022-10-31T12:57:20;16.90;99.90
18930;DHT22;43305;52.186;5.598;2022-10-31T12:59:52;16.90;99.90
18930;DHT22;43305;52.186;5.598;2022-10-31T13:02:29;16.90;99.90
18930;DHT22;43305;52.186;5.598;2022-10-31T13:04:59;17.00;99.90
18930;DHT22;43305;52.186;5.598;2022-10-31T13:07:30;17.00;99.90
18930;DHT22;43305;52.186;5.598;2022-10-31T13:10:03;17.00;99.90
18930;DHT22;43305;52.186;5.598;2022-10-31T13:12:44;17.10;99.90
18930;DHT22;43305;52.186;5.598;2022-10-31T13:15:17;17.10;99.90
18930;DHT22;43305;52.186;5.598;2022-10-31T13:17:53;17.10;99.90
18930;DHT22;43305;52.186;5.598;2022-10-31T13:20:24;17.10;99.90
18930;DHT22;43305;52.186;5.598;2022-10-31T13:22:57;17.20;99.90
18930;DHT22;43305;52.186;5.598;2022-10-31T13:25:33;17.20;99.90
18930;DHT22;43305;52.186;5.598;2022-10-31T13:28:11;17.20;99.90
18930;DHT22;43305;52.186;5.598;2022-10-31T13:30:40;17.10;99.90
18930;DHT22;43305;52.186;5.598;2022-10-31T13:33:16;17.20;99.90
18930;DHT22;43305;52.186;5.598;2022-10-31T13:35:54;17.20;99.90
18930;DHT22;43305;52.186;5.598;2022-10-31T13:38:43;17.20;99.90
18930;DHT22;43305;52.186;5.598;2022-10-31T13:41:27;17.10;99.90
18930;DHT22;43305;52.186;5.598;2022-10-31T13:44:14;17.10;99.90
18930;DHT22;43305;52.186;5.598;2022-10-31T13:46:43;17.10;99.90
18930;DHT22;43305;52.186;5.598;2022-10-31T13:52:17;17.20;99.90
18930;DHT22;43305;52.186;5.598;2022-10-31T13:54:49;17.20;99.90
18930;DHT22;43305;52.186;5.598;2022-10-31T13:57:29;17.20;99.90
18930;DHT22;43305;52.186;5.598;2022-10-31T14:00:05;17.20;99.90
18930;DHT22;43305;52.186;5.598;2022-10-31T14:02:35;17.30;99.90
18930;DHT22;43305;52.186;5.598;2022-10-31T14:05:18;17.30;99.90
18930;DHT22;43305;52.186;5.598;2022-10-31T14:07:47;17.30;99.90
18930;DHT22;43305;52.186;5.598;2022-10-31T14:10:25;17.30;99.90
18930;DHT22;43305;52.186;5.598;2022-10-31T14:12:54;17.30;99.90
18930;DHT22;43305;52.186;5.598;2022-10-31T14:15:38;17.30;99.90
18930;DHT22;43305;52.186;5.598;2022-10-31T14:18:28;17.30;99.90
18930;DHT22;43305;52.186;5.598;2022-10-31T14:20:56;17.30;99.90
18930;DHT22;43305;52.186;5.598;2022-10-31T14:23:42;17.30;99.90
18930;DHT22;43305;52.186;5.598;2022-10-31T14:29:22;17.20;99.90
18930;DHT22;43305;52.186;5.598;2022-10-31T14:32:03;17.10;99.90
18930;DHT22;43305;52.186;5.598;2022-10-31T14:34:40;17.10;99.90
18930;DHT22;43305;52.186;5.598;2022-10-31T14:37:17;17.00;99.90
18930;DHT22;43305;52.186;5.598;2022-10-31T14:39:59;17.00;99.90
18930;DHT22;43305;52.186;5.598;2022-10-31T14:42:45;17.00;99.90
18930;DHT22;43305;52.186;5.598;2022-10-31T14:45:25;16.90;99.90
18930;DHT22;43305;52.186;5.598;2022-10-31T14:48:03;16.90;99.90
18930;DHT22;43305;52.186;5.598;2022-10-31T14:50:42;16.80;99.90
18930;DHT22;43305;52.186;5.598;2022-10-31T14:53:14;16.80;99.90
18930;DHT22;43305;52.186;5.598;2022-10-31T14:55:46;16.70;99.90
18930;DHT22;43305;52.186;5.598;2022-10-31T14:58:17;16.70;99.90
18930;DHT22;43305;52.186;5.598;2022-10-31T15:00:50;16.70;99.90
18930;DHT22;43305;52.186;5.598;2022-10-31T15:03:22;16.70;99.90
18930;DHT22;43305;52.186;5.598;2022-10-31T15:05:53;16.70;99.90
18930;DHT22;43305;52.186;5.598;2022-10-31T15:08:31;16.60;99.90
18930;DHT22;43305;52.186;5.598;2022-10-31T15:11:03;16.60;99.90
18930;DHT22;43305;52.186;5.598;2022-10-31T15:13:42;16.60;99.90
18930;DHT22;43305;52.186;5.598;2022-10-31T15:16:11;16.60;99.90
18930;DHT22;43305;52.186;5.598;2022-10-31T15:18:49;16.50;99.90
18930;DHT22;43305;52.186;5.598;2022-10-31T15:21:18;16.50;99.90
18930;DHT22;43305;52.186;5.598;2022-10-31T15:23:46;16.50;99.90
18930;DHT22;43305;52.186;5.598;2022-10-31T15:26:16;16.40;99.90
18930;DHT22;43305;52.186;5.598;2022-10-31T15:28:44;16.30;99.90
18930;DHT22;43305;52.186;5.598;2022-10-31T15:31:15;16.30;99.90
18930;DHT22;43305;52.186;5.598;2022-10-31T15:33:47;16.30;99.90
18930;DHT22;43305;52.186;5.598;2022-10-31T15:36:20;16.30;99.90
18930;DHT22;43305;52.186;5.598;2022-10-31T15:38:48;16.30;99.90
18930;DHT22;43305;52.186;5.598;2022-10-31T15:41:23;16.20;99.90
18930;DHT22;43305;52.186;5.598;2022-10-31T15:43:54;16.20;99.90
18930;DHT22;43305;52.186;5.598;2022-10-31T15:46:24;16.20;99.90
18930;DHT22;43305;52.186;5.598;2022-10-31T15:48:56;16.20;99.90
18930;DHT22;43305;52.186;5.598;2022-10-31T15:51:37;16.10;99.90
18930;DHT22;43305;52.186;5.598;2022-10-31T15:54:12;16.10;99.90
18930;DHT22;43305;52.186;5.598;2022-10-31T15:56:43;16.10;99.90
18930;DHT22;43305;52.186;5.598;2022-10-31T15:59:16;16.00;99.90
18930;DHT22;43305;52.186;5.598;2022-10-31T16:01:58;16.00;99.90
18930;DHT22;43305;52.186;5.598;2022-10-31T16:04:26;16.00;99.90
18930;DHT22;43305;52.186;5.598;2022-10-31T16:06:59;15.90;99.90
18930;DHT22;43305;52.186;5.598;2022-10-31T16:12:57;15.90;99.90
18930;DHT22;43305;52.186;5.598;2022-10-31T16:15:27;15.80;99.90
18930;DHT22;43305;52.186;5.598;2022-10-31T16:17:55;15.80;99.90
18930;DHT22;43305;52.186;5.598;2022-10-31T16:20:29;15.80;99.90